Scroll down
FLIGHT INFORMATION
United Airlines

UAL1

At Arrival Gate

EDDF
 VIDP
DATE: 2018-11-04
GATE: C15
GATE DEPARTURE: 10:21
TAKEOFF: 10:44
DATE: 2018-11-04
GATE:  -
LANDING: 17:37
GATE ARRIVAL: 17:29
FLIGHT DATA
Speed: 
510 kts
Altitude: 
37,045 ft
Stage Length: 
3,305.1 nm
Block Time: 
7.1 hrs
Flight Time: 
6.9 hrs
Fuel Used: 
158,649 lb
Cleared Route: TOBAK SWALM FULNO ERSET ERSIL ESOBU MITRU OBADI GALMA OSKAT TADUV OGSEN LASIS GIGAL SABAB SUDOL LUXAR NATIX ATKEK VAREN DIBED GORKU NALAD KOROP NMNB KOSNA ETOKA REPLI DOTEL TOKMU OLGIN INSER UHNB ROTIM LEGNA TESMI GIRTI ALEGI BADKO RISKA GOTIK UNEDI MKL BALIP BISNA MARAL TABAB MAHYM BIBIM SAPAR MAMED AFGAN KEMOR MARAD RANAH ENRON VELDT RIKAD DUDEG GODSI ROSIE ZB BASIR MURLI TIGER LKA
TRACK DATA
50,000 ft 1,000 kts
AIRCRAFT INFO AND CUMULATIVE STATS
Aircraft Type: 
B744
Registration: 
SELCAL: 
BPRS
MSN/LN: 
26908 / 1193
Operator: 
Total Flights: 
5
Total Block Time: 
30.7 hrs
Total Flight Time: 
29.1 hrs
Total Fuel Time: 
698,858 lb
DATALINK LOG | Newest first | Current as of: 2020-12-04 22:43:08
LABEL SEQUENCE CONTENT Dn/Up
463301/OV VIDP /TM 1733 /FL008 /TP B744 /SK OVC /WX FG VIS LESS 1 SM /TA 16 /RM SMOKE AND COW DUNG▼ Dn
QD294117:29 49.4▼ Dn
QC224317:22▼ Dn
2U1343VIDP 050000Z 24004KT 0900 R28/1600 R29/1500 MIFG NSC 16/13 Q1014 BECMG 0800 MIFG▲ Up
2S0938VIDP▼ Dn
GA0748ADVANCED GATE ASSIGNMENTS NOT YET AVAILABLE AT THIS AIRPORT▲ Up
GR0212VIDP▼ Dn
2U2040VIDP 042300Z 23003KT 1000 R28/1600 R29/P2000 BR NSC 16/13 Q1014 NOSIG▲ Up
2S3606VIDP▼ Dn
5U2039TAF VIDP 042000Z 0421/0506 03003KT 2500 FU BR BECMG 0500/0502 1000 BR BECMG 0504/0506 3000 FU HZ▲ Up
5S3555VIDP▼ Dn
463444/OV RANAH /TM 1534 /FL370 /TP B744 /TA -26 /WV 291065 /RM NONE▼ Dn
QB291010:29▼ Dn
QA060610:06 208.3▼ Dn
5U5739TAF VIDP 041700Z 0418/0524 30005KT 3000 FU NSC BECMG 0500/0502 32004KT 1000 BR BECMG 0505/0507 3500 FU HZ BECMG 0513/0515 2500 FU▲ Up
5S5559VIDP▼ Dn
2U5335EDDF 041950Z 06009KT 010V070 9999 OVC017 12/08 Q1014 NOSIG▲ Up
2S5139EDDF▼ Dn


AIRCRAFT HISTORY
FLIGHT DATE FLIGHT NO. ORIGIN DESTINATION CLEARED ROUTE BLOCK TIME FLIGHT TIME FUEL USED PILOT
2020-08-28UAL828VHHH ZUUU VHHH BEKOL IDUMA SHL YIN VEROK NODOG QP RUSES MAMSI SJG AKNAV ELKAL MASRO SUMUN BIPIP IRVED XYO PASLU WLY FJC ZUUU2.5 hrs2 hrs48,673 lbKevin Hall
2018-11-08UAL1VIDP VHHH OBDAG MATEX ALI PAVRU LKN BBN GGC TEPAL OPESU CEA AVPOP ESDOT TEBOV SUMSU OTADA BGO LATAD MAKAS PSL CMP UBL PAK BOMPA PLK MUMGA PCA VIMUT VEPAM DAMEL 34BC DONDA DOSUT DULOP CARSO SUKER HOCKY CYBER BETTY MANGO TD5.5 hrs5.2 hrs132,869 lbRobert S. Randazzo
2018-11-04UAL1EDDF VIDP TOBAK SWALM FULNO ERSET ERSIL ESOBU MITRU OBADI GALMA OSKAT TADUV OGSEN LASIS GIGAL SABAB SUDOL LUXAR NATIX ATKEK VAREN DIBED GORKU NALAD KOROP NMNB KOSNA ETOKA REPLI DOTEL TOKMU OLGIN INSER UHNB ROTIM LEGNA TESMI GIRTI ALEGI BADKO RISKA GOTIK UNEDI MKL BALIP BISNA MARAL TABAB MAHYM BIBIM SAPAR MAMED AFGAN KEMOR MARAD RANAH ENRON VELDT RIKAD DUDEG GODSI ROSIE ZB BASIR MURLI TIGER LKA7.1 hrs6.9 hrs158,649 lbRobert S. Randazzo
2018-11-04UAL916KIAD EDDF RIGNZ JCOBY GRIIM SOOKI SWANN BROSS STIKY OOD DAVYS BRAND RBV LLUND BAYYS PUT EBONY SAXAN N52W040 N52W030 N52W020 TOBOR RILED BANBA KONAN KOK FERDI BUPAL REMBA SPI PESOV TOBOP NIVNU RASVO PIPEP UNOKO6.9 hrs6.7 hrs163,450 lbRobert S. Randazzo
2018-10-27UAL933EDDF KIAD DF140 DF146 ODAGA KUSOM GUBAX RAVKI DITAM OBOKA MYNDA TINIK TORNU BREDA HSD REFSO ULKOK XAMAN LOGAN TRIPO SABER LIVSU MANGO BRASO WESUL LAM CPT KENET GAVGO DIKAS STU BANBA LILNO ATSUR SOMAX 4920N 4830N 4640N 4450N 4260N DOVEY ACK CUJKE CUTOX KYSKY RIFLE SHLEP CREEL JOANI RBV HIKES LRP JOANE DELRO LIRCH BINNS HYPER COVUR DIMKE HOOSR8.7 hrs8.3 hrs195,218 lbKyle Rodgers